sensor_id;sensor_type;location;lat;lon;timestamp;pressure;altitude;pressure_sealevel;temperature;humidity
28927;BME280;16038;47.692;9.400;2023-05-23T00:02:06;96421.44;;;15.00;100.00
28927;BME280;16038;47.692;9.400;2023-05-23T00:04:33;96432.31;;;15.29;100.00
28927;BME280;16038;47.692;9.400;2023-05-23T00:07:01;96431.41;;;15.43;100.00
28927;BME280;16038;47.692;9.400;2023-05-23T00:09:27;96434.53;;;15.52;100.00
28927;BME280;16038;47.692;9.400;2023-05-23T00:11:52;96432.56;;;15.49;100.00
28927;BME280;16038;47.692;9.400;2023-05-23T00:14:17;96434.13;;;15.50;100.00
28927;BME280;16038;47.692;9.400;2023-05-23T00:16:44;96431.50;;;15.32;100.00
28927;BME280;16038;47.692;9.400;2023-05-23T00:19:11;96441.44;;;15.19;100.00
28927;BME280;16038;47.692;9.400;2023-05-23T00:21:39;96443.84;;;15.09;100.00
28927;BME280;16038;47.692;9.400;2023-05-23T00:24:04;96442.66;;;15.10;100.00
28927;BME280;16038;47.692;9.400;2023-05-23T00:26:30;96439.72;;;14.62;100.00
28927;BME280;16038;47.692;9.400;2023-05-23T00:28:56;96436.19;;;14.54;100.00
28927;BME280;16038;47.692;9.400;2023-05-23T00:31:22;96435.41;;;14.64;100.00
28927;BME280;16038;47.692;9.400;2023-05-23T00:33:47;96430.69;;;14.61;100.00
28927;BME280;16038;47.692;9.400;2023-05-23T00:36:13;96441.31;;;14.63;100.00
28927;BME280;16038;47.692;9.400;2023-05-23T00:38:38;96434.59;;;14.57;100.00
28927;BME280;16038;47.692;9.400;2023-05-23T00:41:04;96436.22;;;14.58;100.00
28927;BME280;16038;47.692;9.400;2023-05-23T00:43:30;96431.06;;;14.67;100.00
28927;BME280;16038;47.692;9.400;2023-05-23T00:45:56;96435.81;;;14.59;100.00
28927;BME280;16038;47.692;9.400;2023-05-23T00:48:22;96432.22;;;14.77;100.00
28927;BME280;16038;47.692;9.400;2023-05-23T00:50:48;96440.47;;;14.80;100.00
28927;BME280;16038;47.692;9.400;2023-05-23T00:53:14;96434.13;;;14.87;100.00
28927;BME280;16038;47.692;9.400;2023-05-23T00:55:41;96438.47;;;14.81;100.00
28927;BME280;16038;47.692;9.400;2023-05-23T00:58:06;96449.53;;;14.77;100.00
28927;BME280;16038;47.692;9.400;2023-05-23T01:00:32;96443.25;;;14.77;100.00
28927;BME280;16038;47.692;9.400;2023-05-23T01:02:58;96440.88;;;14.75;100.00
28927;BME280;16038;47.692;9.400;2023-05-23T01:05:25;96434.91;;;14.87;100.00
28927;BME280;16038;47.692;9.400;2023-05-23T01:07:51;96440.75;;;15.04;100.00
28927;BME280;16038;47.692;9.400;2023-05-23T01:10:22;96441.50;;;15.08;100.00
28927;BME280;16038;47.692;9.400;2023-05-23T01:13:00;96437.19;;;15.03;100.00
28927;BME280;16038;47.692;9.400;2023-05-23T01:16:02;96436.03;;;15.01;100.00
28927;BME280;16038;47.692;9.400;2023-05-23T01:18:37;96441.84;;;15.14;100.00
28927;BME280;16038;47.692;9.400;2023-05-23T01:21:09;96438.31;;;15.17;100.00
28927;BME280;16038;47.692;9.400;2023-05-23T01:26:55;96440.28;;;15.16;100.00
28927;BME280;16038;47.692;9.400;2023-05-23T01:29:29;96443.47;;;15.11;100.00
28927;BME280;16038;47.692;9.400;2023-05-23T01:31:56;96444.81;;;14.70;100.00
28927;BME280;16038;47.692;9.400;2023-05-23T01:34:22;96440.59;;;14.37;100.00
28927;BME280;16038;47.692;9.400;2023-05-23T01:36:49;96452.03;;;14.25;100.00
28927;BME280;16038;47.692;9.400;2023-05-23T01:39:17;96457.09;;;14.44;100.00
28927;BME280;16038;47.692;9.400;2023-05-23T01:41:43;96455.84;;;14.67;100.00
28927;BME280;16038;47.692;9.400;2023-05-23T01:44:08;96459.41;;;14.64;100.00
28927;BME280;16038;47.692;9.400;2023-05-23T01:46:34;96451.47;;;14.84;100.00
28927;BME280;16038;47.692;9.400;2023-05-23T01:49:04;96443.13;;;14.98;100.00
28927;BME280;16038;47.692;9.400;2023-05-23T01:51:31;96442.63;;;15.14;100.00
28927;BME280;16038;47.692;9.400;2023-05-23T01:53:58;96451.72;;;15.15;100.00
28927;BME280;16038;47.692;9.400;2023-05-23T01:56:25;96445.38;;;15.18;100.00
28927;BME280;16038;47.692;9.400;2023-05-23T01:58:51;96450.56;;;15.08;100.00
28927;BME280;16038;47.692;9.400;2023-05-23T02:01:16;96441.59;;;14.90;100.00
28927;BME280;16038;47.692;9.400;2023-05-23T02:03:42;96458.94;;;14.83;100.00
28927;BME280;16038;47.692;9.400;2023-05-23T02:06:07;96447.09;;;14.94;100.00
28927;BME280;16038;47.692;9.400;2023-05-23T02:08:33;96454.88;;;15.09;100.00
28927;BME280;16038;47.692;9.400;2023-05-23T02:10:58;96454.19;;;14.95;100.00
28927;BME280;16038;47.692;9.400;2023-05-23T02:13:23;96467.53;;;14.96;100.00
28927;BME280;16038;47.692;9.400;2023-05-23T02:15:49;96467.97;;;14.95;100.00
28927;BME280;16038;47.692;9.400;2023-05-23T02:18:14;96470.00;;;14.76;100.00
28927;BME280;16038;47.692;9.400;2023-05-23T02:20:39;96482.66;;;14.63;100.00
28927;BME280;16038;47.692;9.400;2023-05-23T02:23:05;96469.66;;;14.63;100.00
28927;BME280;16038;47.692;9.400;2023-05-23T02:25:30;96476.75;;;14.61;100.00
28927;BME280;16038;47.692;9.400;2023-05-23T02:27:56;96464.16;;;14.49;100.00
28927;BME280;16038;47.692;9.400;2023-05-23T02:30:21;96469.72;;;14.24;100.00
28927;BME280;16038;47.692;9.400;2023-05-23T02:32:46;96470.13;;;14.19;100.00
28927;BME280;16038;47.692;9.400;2023-05-23T02:35:12;96473.66;;;14.26;100.00
28927;BME280;16038;47.692;9.400;2023-05-23T02:37:37;96472.81;;;14.44;100.00
28927;BME280;16038;47.692;9.400;2023-05-23T02:40:04;96478.69;;;14.53;100.00
28927;BME280;16038;47.692;9.400;2023-05-23T02:42:32;96470.03;;;14.62;100.00
28927;BME280;16038;47.692;9.400;2023-05-23T02:44:57;96472.41;;;14.63;100.00
28927;BME280;16038;47.692;9.400;2023-05-23T02:47:22;96470.03;;;14.65;100.00
28927;BME280;16038;47.692;9.400;2023-05-23T02:49:48;96475.16;;;14.67;100.00
28927;BME280;16038;47.692;9.400;2023-05-23T02:52:13;96471.25;;;14.64;100.00
28927;BME280;16038;47.692;9.400;2023-05-23T02:54:38;96470.03;;;14.62;100.00
28927;BME280;16038;47.692;9.400;2023-05-23T02:57:05;96468.47;;;14.57;100.00
28927;BME280;16038;47.692;9.400;2023-05-23T02:59:30;96469.25;;;14.65;100.00
28927;BME280;16038;47.692;9.400;2023-05-23T03:01:56;96475.94;;;14.67;100.00
28927;BME280;16038;47.692;9.400;2023-05-23T03:04:21;96472.41;;;14.60;100.00
28927;BME280;16038;47.692;9.400;2023-05-23T03:06:46;96472.41;;;14.63;100.00
28927;BME280;16038;47.692;9.400;2023-05-23T03:09:14;96475.91;;;14.71;100.00
28927;BME280;16038;47.692;9.400;2023-05-23T03:11:41;96472.78;;;14.72;100.00
28927;BME280;16038;47.692;9.400;2023-05-23T03:14:06;96472.78;;;14.69;100.00
28927;BME280;16038;47.692;9.400;2023-05-23T03:16:31;96478.69;;;14.64;100.00
28927;BME280;16038;47.692;9.400;2023-05-23T03:18:57;96477.56;;;14.58;100.00
28927;BME280;16038;47.692;9.400;2023-05-23T03:21:22;96485.03;;;14.46;100.00
28927;BME280;16038;47.692;9.400;2023-05-23T03:23:48;96479.97;;;14.20;100.00
28927;BME280;16038;47.692;9.400;2023-05-23T03:26:14;96494.91;;;14.11;100.00
28927;BME280;16038;47.692;9.400;2023-05-23T03:28:39;96488.22;;;14.23;100.00
28927;BME280;16038;47.692;9.400;2023-05-23T03:31:05;96490.19;;;14.26;100.00
28927;BME280;16038;47.692;9.400;2023-05-23T03:33:30;96481.56;;;14.13;100.00
28927;BME280;16038;47.692;9.400;2023-05-23T03:35:56;96482.34;;;13.92;100.00
28927;BME280;16038;47.692;9.400;2023-05-23T03:38:21;96480.38;;;13.89;100.00
28927;BME280;16038;47.692;9.400;2023-05-23T03:40:47;96481.13;;;13.57;100.00
28927;BME280;16038;47.692;9.400;2023-05-23T03:43:12;96489.00;;;13.63;100.00
28927;BME280;16038;47.692;9.400;2023-05-23T03:45:37;96487.47;;;13.76;100.00
28927;BME280;16038;47.692;9.400;2023-05-23T03:48:03;96498.03;;;13.31;100.00
28927;BME280;16038;47.692;9.400;2023-05-23T03:50:28;96499.19;;;13.37;100.00
28927;BME280;16038;47.692;9.400;2023-05-23T03:52:54;96506.56;;;13.04;100.00
28927;BME280;16038;47.692;9.400;2023-05-23T03:55:20;96506.94;;;13.03;100.00
28927;BME280;16038;47.692;9.400;2023-05-23T03:57:52;96515.53;;;12.94;100.00
28927;BME280;16038;47.692;9.400;2023-05-23T04:00:17;96513.22;;;13.07;100.00
28927;BME280;16038;47.692;9.400;2023-05-23T04:02:44;96522.28;;;13.11;100.00
28927;BME280;16038;47.692;9.400;2023-05-23T04:05:14;96531.38;;;13.26;100.00
28927;BME280;16038;47.692;9.400;2023-05-23T04:07:39;96522.44;;;13.72;100.00
28927;BME280;16038;47.692;9.400;2023-05-23T04:10:06;96527.56;;;13.73;100.00
28927;BME280;16038;47.692;9.400;2023-05-23T04:12:33;96519.69;;;14.08;100.00
28927;BME280;16038;47.692;9.400;2023-05-23T04:14:58;96520.50;;;14.15;100.00
28927;BME280;16038;47.692;9.400;2023-05-23T04:17:24;96525.19;;;14.37;100.00
28927;BME280;16038;47.692;9.400;2023-05-23T04:19:50;96518.88;;;14.58;100.00
28927;BME280;16038;47.692;9.400;2023-05-23T04:22:16;96518.50;;;14.38;100.00
28927;BME280;16038;47.692;9.400;2023-05-23T04:24:42;96511.41;;;14.44;100.00
28927;BME280;16038;47.692;9.400;2023-05-23T04:27:08;96521.25;;;14.59;100.00
28927;BME280;16038;47.692;9.400;2023-05-23T04:29:34;96514.88;;;14.91;100.00
28927;BME280;16038;47.692;9.400;2023-05-23T04:32:14;96528.19;;;15.03;100.00
28927;BME280;16038;47.692;9.400;2023-05-23T04:34:40;96524.16;;;15.29;100.00
28927;BME280;16038;47.692;9.400;2023-05-23T04:37:06;96526.69;;;15.65;100.00
28927;BME280;16038;47.692;9.400;2023-05-23T04:39:33;96531.19;;;16.04;100.00
28927;BME280;16038;47.692;9.400;2023-05-23T04:41:59;96524.59;;;16.36;100.00
28927;BME280;16038;47.692;9.400;2023-05-23T04:44:24;96535.50;;;16.51;100.00
28927;BME280;16038;47.692;9.400;2023-05-23T04:46:51;96529.00;;;16.72;100.00
28927;BME280;16038;47.692;9.400;2023-05-23T04:49:16;96534.28;;;16.97;100.00
28927;BME280;16038;47.692;9.400;2023-05-23T04:51:42;96526.91;;;17.17;100.00
28927;BME280;16038;47.692;9.400;2023-05-23T04:54:07;96529.00;;;17.41;100.00
28927;BME280;16038;47.692;9.400;2023-05-23T04:56:33;96533.81;;;17.64;100.00
28927;BME280;16038;47.692;9.400;2023-05-23T04:58:58;96539.84;;;18.13;100.00
28927;BME280;16038;47.692;9.400;2023-05-23T05:01:24;96541.28;;;18.21;99.98
28927;BME280;16038;47.692;9.400;2023-05-23T05:03:50;96533.09;;;16.56;100.00
28927;BME280;16038;47.692;9.400;2023-05-23T05:06:15;96537.94;;;16.87;100.00
28927;BME280;16038;47.692;9.400;2023-05-23T05:08:41;96531.94;;;17.26;100.00
28927;BME280;16038;47.692;9.400;2023-05-23T05:11:08;96535.69;;;17.43;100.00
28927;BME280;16038;47.692;9.400;2023-05-23T05:13:33;96533.16;;;17.56;100.00
28927;BME280;16038;47.692;9.400;2023-05-23T05:15:58;96539.56;;;17.49;100.00
28927;BME280;16038;47.692;9.400;2023-05-23T05:18:27;96538.63;;;16.98;100.00
28927;BME280;16038;47.692;9.400;2023-05-23T05:20:53;96539.88;;;16.90;100.00
28927;BME280;16038;47.692;9.400;2023-05-23T05:23:19;96543.56;;;16.76;100.00
28927;BME280;16038;47.692;9.400;2023-05-23T05:25:45;96542.31;;;17.18;100.00
28927;BME280;16038;47.692;9.400;2023-05-23T05:28:10;96535.34;;;17.68;100.00
28927;BME280;16038;47.692;9.400;2023-05-23T05:30:36;96544.25;;;18.10;100.00
28927;BME280;16038;47.692;9.400;2023-05-23T05:33:02;96549.66;;;18.18;100.00
28927;BME280;16038;47.692;9.400;2023-05-23T05:35:32;96558.00;;;18.41;99.45
28927;BME280;16038;47.692;9.400;2023-05-23T05:37:58;96543.81;;;18.59;98.35
28927;BME280;16038;47.692;9.400;2023-05-23T05:40:24;96555.03;;;18.52;97.78
28927;BME280;16038;47.692;9.400;2023-05-23T05:42:49;96553.75;;;18.80;97.32
28927;BME280;16038;47.692;9.400;2023-05-23T05:45:15;96553.72;;;19.04;94.77
28927;BME280;16038;47.692;9.400;2023-05-23T05:47:41;96559.84;;;18.95;94.01
28927;BME280;16038;47.692;9.400;2023-05-23T05:50:07;96563.19;;;19.06;94.47
28927;BME280;16038;47.692;9.400;2023-05-23T05:52:34;96556.78;;;19.09;93.00
28927;BME280;16038;47.692;9.400;2023-05-23T05:55:09;96555.75;;;19.60;92.39
28927;BME280;16038;47.692;9.400;2023-05-23T05:57:39;96557.41;;;20.92;82.85
28927;BME280;16038;47.692;9.400;2023-05-23T06:00:10;96561.00;;;22.03;76.84
28927;BME280;16038;47.692;9.400;2023-05-23T06:02:43;96559.75;;;22.90;69.88
28927;BME280;16038;47.692;9.400;2023-05-23T06:05:12;96563.66;;;22.93;69.32
28927;BME280;16038;47.692;9.400;2023-05-23T06:07:42;96572.41;;;23.83;64.99
28927;BME280;16038;47.692;9.400;2023-05-23T06:10:08;96564.63;;;24.18;63.15
28927;BME280;16038;47.692;9.400;2023-05-23T06:12:36;96572.25;;;24.77;59.75
28927;BME280;16038;47.692;9.400;2023-05-23T06:15:02;96570.53;;;23.58;63.08
28927;BME280;16038;47.692;9.400;2023-05-23T06:17:28;96563.88;;;25.23;58.60
28927;BME280;16038;47.692;9.400;2023-05-23T06:19:53;96566.50;;;24.90;58.38
28927;BME280;16038;47.692;9.400;2023-05-23T06:22:19;96565.91;;;25.13;58.03
28927;BME280;16038;47.692;9.400;2023-05-23T06:24:44;96566.38;;;25.49;56.81
28927;BME280;16038;47.692;9.400;2023-05-23T06:27:11;96567.63;;;26.42;54.13
28927;BME280;16038;47.692;9.400;2023-05-23T06:29:36;96568.78;;;27.08;51.89
28927;BME280;16038;47.692;9.400;2023-05-23T06:32:01;96567.75;;;27.74;50.47
28927;BME280;16038;47.692;9.400;2023-05-23T06:34:27;96581.13;;;28.24;48.25
28927;BME280;16038;47.692;9.400;2023-05-23T06:36:53;96584.22;;;27.52;50.00
28927;BME280;16038;47.692;9.400;2023-05-23T06:39:19;96575.78;;;26.40;52.67
28927;BME280;16038;47.692;9.400;2023-05-23T06:41:44;96578.69;;;25.42;56.25
28927;BME280;16038;47.692;9.400;2023-05-23T06:44:09;96580.38;;;25.12;56.79
28927;BME280;16038;47.692;9.400;2023-05-23T06:46:35;96580.47;;;26.01;56.70
28927;BME280;16038;47.692;9.400;2023-05-23T06:49:00;96577.88;;;25.51;55.70
28927;BME280;16038;47.692;9.400;2023-05-23T06:51:25;96569.94;;;24.85;58.72
28927;BME280;16038;47.692;9.400;2023-05-23T06:53:51;96575.88;;;24.28;61.28
28927;BME280;16038;47.692;9.400;2023-05-23T06:56:16;96577.06;;;24.58;60.12
28927;BME280;16038;47.692;9.400;2023-05-23T06:58:41;96571.97;;;24.75;59.40
28927;BME280;16038;47.692;9.400;2023-05-23T07:01:07;96576.78;;;24.74;59.02
28927;BME280;16038;47.692;9.400;2023-05-23T07:03:32;96581.44;;;24.68;60.94
28927;BME280;16038;47.692;9.400;2023-05-23T07:05:58;96576.34;;;25.31;57.76
28927;BME280;16038;47.692;9.400;2023-05-23T07:08:23;96575.72;;;24.90;60.09
28927;BME280;16038;47.692;9.400;2023-05-23T07:10:48;96580.69;;;25.23;58.34
28927;BME280;16038;47.692;9.400;2023-05-23T07:13:14;96579.94;;;25.41;58.02
28927;BME280;16038;47.692;9.400;2023-05-23T07:15:39;96586.47;;;25.38;58.44
28927;BME280;16038;47.692;9.400;2023-05-23T07:18:05;96589.06;;;24.68;59.79
28927;BME280;16038;47.692;9.400;2023-05-23T07:20:32;96590.97;;;23.77;63.09
28927;BME280;16038;47.692;9.400;2023-05-23T07:22:58;96594.13;;;23.35;66.29
28927;BME280;16038;47.692;9.400;2023-05-23T07:25:24;96590.94;;;23.23;68.29
28927;BME280;16038;47.692;9.400;2023-05-23T07:27:50;96597.81;;;23.09;68.83
28927;BME280;16038;47.692;9.400;2023-05-23T07:30:19;96590.78;;;22.57;69.42
28927;BME280;16038;47.692;9.400;2023-05-23T07:32:46;96592.00;;;22.18;72.55
28927;BME280;16038;47.692;9.400;2023-05-23T07:35:12;96584.63;;;21.85;75.23
28927;BME280;16038;47.692;9.400;2023-05-23T07:37:37;96593.09;;;21.69;76.52
28927;BME280;16038;47.692;9.400;2023-05-23T07:40:04;96582.06;;;21.36;78.21
28927;BME280;16038;47.692;9.400;2023-05-23T07:42:29;96581.75;;;21.17;79.66
28927;BME280;16038;47.692;9.400;2023-05-23T07:44:55;96584.44;;;21.21;82.61
28927;BME280;16038;47.692;9.400;2023-05-23T07:47:20;96579.78;;;21.18;83.00
28927;BME280;16038;47.692;9.400;2023-05-23T07:49:46;96576.19;;;21.17;83.97
28927;BME280;16038;47.692;9.400;2023-05-23T07:52:11;96579.06;;;21.14;85.20
28927;BME280;16038;47.692;9.400;2023-05-23T07:54:37;96583.97;;;21.10;85.40
28927;BME280;16038;47.692;9.400;2023-05-23T07:57:03;96598.31;;;21.08;86.36
28927;BME280;16038;47.692;9.400;2023-05-23T07:59:28;96591.94;;;21.24;85.59
28927;BME280;16038;47.692;9.400;2023-05-23T08:01:54;96593.13;;;20.94;88.27
28927;BME280;16038;47.692;9.400;2023-05-23T08:04:20;96585.44;;;20.36;91.84
28927;BME280;16038;47.692;9.400;2023-05-23T08:06:45;96586.53;;;20.22;93.80
28927;BME280;16038;47.692;9.400;2023-05-23T08:09:14;96585.72;;;19.89;98.67
28927;BME280;16038;47.692;9.400;2023-05-23T08:11:39;96588.25;;;19.83;98.21
28927;BME280;16038;47.692;9.400;2023-05-23T08:14:05;96589.53;;;19.78;98.90
28927;BME280;16038;47.692;9.400;2023-05-23T08:16:30;96597.56;;;19.73;99.62
28927;BME280;16038;47.692;9.400;2023-05-23T08:18:55;96594.22;;;19.61;99.87
28927;BME280;16038;47.692;9.400;2023-05-23T08:21:22;96594.81;;;19.53;99.87
28927;BME280;16038;47.692;9.400;2023-05-23T08:23:48;96592.66;;;19.60;100.00
28927;BME280;16038;47.692;9.400;2023-05-23T08:26:13;96595.19;;;19.71;99.82
28927;BME280;16038;47.692;9.400;2023-05-23T08:28:39;96595.84;;;19.59;98.92
28927;BME280;16038;47.692;9.400;2023-05-23T08:31:04;96600.06;;;19.67;99.53
28927;BME280;16038;47.692;9.400;2023-05-23T08:33:31;96600.06;;;19.87;97.88
28927;BME280;16038;47.692;9.400;2023-05-23T08:35:57;96605.25;;;19.85;97.42
28927;BME280;16038;47.692;9.400;2023-05-23T08:38:22;96603.09;;;19.93;97.52
28927;BME280;16038;47.692;9.400;2023-05-23T08:40:49;96607.03;;;19.95;96.35
28927;BME280;16038;47.692;9.400;2023-05-23T08:43:15;96603.03;;;19.96;96.46
28927;BME280;16038;47.692;9.400;2023-05-23T08:45:41;96604.88;;;20.03;95.91
28927;BME280;16038;47.692;9.400;2023-05-23T08:48:07;96603.47;;;20.11;96.09
28927;BME280;16038;47.692;9.400;2023-05-23T08:50:36;96610.03;;;20.21;95.55
28927;BME280;16038;47.692;9.400;2023-05-23T08:53:03;96607.94;;;20.41;93.41
28927;BME280;16038;47.692;9.400;2023-05-23T08:55:29;96611.84;;;20.60;91.82
28927;BME280;16038;47.692;9.400;2023-05-23T08:57:57;96613.69;;;20.84;89.84
28927;BME280;16038;47.692;9.400;2023-05-23T09:00:24;96613.81;;;21.09;87.00
28927;BME280;16038;47.692;9.400;2023-05-23T09:02:50;96622.31;;;21.18;86.15
28927;BME280;16038;47.692;9.400;2023-05-23T09:05:15;96619.72;;;21.41;85.12
28927;BME280;16038;47.692;9.400;2023-05-23T09:07:42;96615.25;;;21.60;82.13
28927;BME280;16038;47.692;9.400;2023-05-23T09:10:09;96618.25;;;21.52;82.97
28927;BME280;16038;47.692;9.400;2023-05-23T09:12:35;96620.25;;;21.52;81.76
28927;BME280;16038;47.692;9.400;2023-05-23T09:17:31;96614.28;;;21.66;81.57
28927;BME280;16038;47.692;9.400;2023-05-23T09:19:58;96616.50;;;21.71;81.85
28927;BME280;16038;47.692;9.400;2023-05-23T09:22:24;96614.41;;;21.75;83.30
28927;BME280;16038;47.692;9.400;2023-05-23T09:24:51;96615.72;;;21.71;81.39
28927;BME280;16038;47.692;9.400;2023-05-23T09:27:17;96615.28;;;21.72;81.92
28927;BME280;16038;47.692;9.400;2023-05-23T09:29:43;96610.38;;;21.76;80.61
28927;BME280;16038;47.692;9.400;2023-05-23T09:32:18;96607.16;;;21.78;81.47
28927;BME280;16038;47.692;9.400;2023-05-23T09:35:01;96605.94;;;22.18;79.83
28927;BME280;16038;47.692;9.400;2023-05-23T09:37:31;96605.84;;;22.47;77.30
28927;BME280;16038;47.692;9.400;2023-05-23T09:40:04;96609.44;;;22.95;74.63
28927;BME280;16038;47.692;9.400;2023-05-23T09:42:33;96607.78;;;23.55;70.42
28927;BME280;16038;47.692;9.400;2023-05-23T09:44:59;96609.47;;;24.05;68.09
28927;BME280;16038;47.692;9.400;2023-05-23T09:47:24;96613.75;;;23.88;67.87
28927;BME280;16038;47.692;9.400;2023-05-23T09:49:51;96611.59;;;23.92;68.42
28927;BME280;16038;47.692;9.400;2023-05-23T09:52:16;96612.38;;;23.71;67.63
28927;BME280;16038;47.692;9.400;2023-05-23T09:54:44;96611.47;;;23.74;67.92
28927;BME280;16038;47.692;9.400;2023-05-23T09:57:11;96613.47;;;23.73;67.54
28927;BME280;16038;47.692;9.400;2023-05-23T09:59:44;96617.06;;;23.74;67.07
28927;BME280;16038;47.692;9.400;2023-05-23T10:02:11;96628.47;;;23.57;67.49
28927;BME280;16038;47.692;9.400;2023-05-23T10:04:38;96621.63;;;23.36;67.88
28927;BME280;16038;47.692;9.400;2023-05-23T10:07:13;96615.03;;;22.95;69.45
28927;BME280;16038;47.692;9.400;2023-05-23T10:09:41;96606.28;;;22.71;71.00
28927;BME280;16038;47.692;9.400;2023-05-23T10:14:43;96602.75;;;22.93;69.53
28927;BME280;16038;47.692;9.400;2023-05-23T10:17:14;96597.06;;;22.96;70.94
28927;BME280;16038;47.692;9.400;2023-05-23T10:22:41;96591.06;;;22.72;72.85
28927;BME280;16038;47.692;9.400;2023-05-23T10:25:08;96583.19;;;23.05;70.85
28927;BME280;16038;47.692;9.400;2023-05-23T10:27:38;96583.59;;;23.04;70.29
28927;BME280;16038;47.692;9.400;2023-05-23T10:30:05;96588.53;;;23.35;69.61
28927;BME280;16038;47.692;9.400;2023-05-23T10:32:32;96584.09;;;23.69;67.19
28927;BME280;16038;47.692;9.400;2023-05-23T10:37:38;96598.34;;;23.39;69.22
28927;BME280;16038;47.692;9.400;2023-05-23T10:42:44;96594.50;;;23.24;67.82
28927;BME280;16038;47.692;9.400;2023-05-23T10:45:22;96584.16;;;23.78;67.57
28927;BME280;16038;47.692;9.400;2023-05-23T10:47:50;96576.03;;;24.33;65.22
28927;BME280;16038;47.692;9.400;2023-05-23T10:50:32;96582.25;;;24.96;60.97
28927;BME280;16038;47.692;9.400;2023-05-23T10:53:02;96577.88;;;25.05;62.15
28927;BME280;16038;47.692;9.400;2023-05-23T10:55:33;96584.13;;;25.18;58.95
28927;BME280;16038;47.692;9.400;2023-05-23T10:58:18;96585.81;;;24.88;59.98
28927;BME280;16038;47.692;9.400;2023-05-23T11:01:04;96580.34;;;22.83;69.70
28927;BME280;16038;47.692;9.400;2023-05-23T11:03:47;96586.34;;;24.46;64.50
28927;BME280;16038;47.692;9.400;2023-05-23T11:06:38;96582.44;;;25.48;59.79
28927;BME280;16038;47.692;9.400;2023-05-23T11:09:09;96577.16;;;25.32;58.93
28927;BME280;16038;47.692;9.400;2023-05-23T11:14:20;96579.75;;;25.63;56.49
28927;BME280;16038;47.692;9.400;2023-05-23T11:16:55;96577.91;;;25.42;58.28
28927;BME280;16038;47.692;9.400;2023-05-23T11:19:25;96581.03;;;25.07;58.70
28927;BME280;16038;47.692;9.400;2023-05-23T11:21:58;96581.47;;;25.05;59.37
28927;BME280;16038;47.692;9.400;2023-05-23T11:24:55;96590.69;;;24.47;59.88
28927;BME280;16038;47.692;9.400;2023-05-23T11:27:31;96590.59;;;22.86;69.36
28927;BME280;16038;47.692;9.400;2023-05-23T11:32:34;96581.88;;;22.37;69.57
28927;BME280;16038;47.692;9.400;2023-05-23T11:35:04;96581.66;;;22.31;70.58
28927;BME280;16038;47.692;9.400;2023-05-23T11:37:30;96576.59;;;22.00;73.20
28927;BME280;16038;47.692;9.400;2023-05-23T11:39:56;96584.09;;;20.90;79.85
28927;BME280;16038;47.692;9.400;2023-05-23T11:42:22;96595.69;;;20.39;82.84
28927;BME280;16038;47.692;9.400;2023-05-23T11:44:49;96604.03;;;19.86;86.60
28927;BME280;16038;47.692;9.400;2023-05-23T11:47:16;96599.50;;;19.76;93.24
28927;BME280;16038;47.692;9.400;2023-05-23T11:49:43;96589.16;;;19.56;98.15
28927;BME280;16038;47.692;9.400;2023-05-23T11:52:09;96588.22;;;19.03;100.00
28927;BME280;16038;47.692;9.400;2023-05-23T11:54:35;96585.75;;;19.08;100.00
28927;BME280;16038;47.692;9.400;2023-05-23T11:57:01;96587.03;;;19.04;99.38
28927;BME280;16038;47.692;9.400;2023-05-23T11:59:27;96572.53;;;19.36;100.00
28927;BME280;16038;47.692;9.400;2023-05-23T12:01:54;96568.59;;;19.34;100.00
28927;BME280;16038;47.692;9.400;2023-05-23T12:04:19;96574.00;;;19.21;98.96
28927;BME280;16038;47.692;9.400;2023-05-23T12:06:48;96559.44;;;20.26;97.84
28927;BME280;16038;47.692;9.400;2023-05-23T12:09:15;96559.13;;;21.45;93.65
28927;BME280;16038;47.692;9.400;2023-05-23T12:11:41;96552.41;;;22.23;80.63
28927;BME280;16038;47.692;9.400;2023-05-23T12:14:07;96557.50;;;22.98;73.97
28927;BME280;16038;47.692;9.400;2023-05-23T12:16:34;96560.13;;;23.58;66.49
28927;BME280;16038;47.692;9.400;2023-05-23T12:19:00;96562.94;;;22.66;59.70
28927;BME280;16038;47.692;9.400;2023-05-23T12:21:26;96563.19;;;23.29;60.74
28927;BME280;16038;47.692;9.400;2023-05-23T12:23:51;96553.84;;;23.76;58.50
28927;BME280;16038;47.692;9.400;2023-05-23T12:26:17;96558.94;;;24.00;54.67
28927;BME280;16038;47.692;9.400;2023-05-23T12:28:44;96558.56;;;24.20;53.20
28927;BME280;16038;47.692;9.400;2023-05-23T12:31:16;96550.25;;;24.38;53.56
28927;BME280;16038;47.692;9.400;2023-05-23T12:33:43;96544.38;;;24.55;50.01
28927;BME280;16038;47.692;9.400;2023-05-23T12:36:09;96537.38;;;22.68;54.86
28927;BME280;16038;47.692;9.400;2023-05-23T12:38:39;96535.91;;;22.28;61.60
28927;BME280;16038;47.692;9.400;2023-05-23T12:41:15;96528.44;;;21.87;72.81
28927;BME280;16038;47.692;9.400;2023-05-23T12:43:48;96532.78;;;21.33;70.88
28927;BME280;16038;47.692;9.400;2023-05-23T12:46:14;96531.19;;;21.19;77.85
28927;BME280;16038;47.692;9.400;2023-05-23T12:48:40;96542.47;;;21.28;80.05
28927;BME280;16038;47.692;9.400;2023-05-23T12:51:05;96538.56;;;21.68;79.88
28927;BME280;16038;47.692;9.400;2023-05-23T12:53:30;96542.81;;;21.72;76.83
28927;BME280;16038;47.692;9.400;2023-05-23T12:55:56;96545.09;;;21.06;78.84
28927;BME280;16038;47.692;9.400;2023-05-23T12:58:21;96542.25;;;21.90;75.39
28927;BME280;16038;47.692;9.400;2023-05-23T13:00:47;96546.84;;;22.36;75.41
28927;BME280;16038;47.692;9.400;2023-05-23T13:03:13;96549.03;;;22.88;73.34
28927;BME280;16038;47.692;9.400;2023-05-23T13:05:38;96544.38;;;21.73;75.97
28927;BME280;16038;47.692;9.400;2023-05-23T13:08:03;96532.78;;;21.33;78.97
28927;BME280;16038;47.692;9.400;2023-05-23T13:10:29;96530.09;;;21.16;79.31
28927;BME280;16038;47.692;9.400;2023-05-23T13:12:54;96532.44;;;21.18;80.70
28927;BME280;16038;47.692;9.400;2023-05-23T13:15:20;96521.72;;;21.16;82.04
28927;BME280;16038;47.692;9.400;2023-05-23T13:17:45;96525.94;;;20.79;84.90